createdAt,value
2023-02-13T00:00:41.996Z,1028.39
2023-02-13T00:01:42.696Z,1028.39
2023-02-13T00:02:42.423Z,1028.37
2023-02-13T00:03:42.640Z,1028.38
2023-02-13T00:04:42.787Z,1028.34
2023-02-13T00:05:42.917Z,1028.40
2023-02-13T00:06:43.047Z,1028.36
2023-02-13T00:07:43.222Z,1028.31
2023-02-13T00:08:43.403Z,1028.33
2023-02-13T00:09:43.535Z,1028.34
2023-02-13T00:10:44.665Z,1028.35
2023-02-13T00:11:44.662Z,1028.35
2023-02-13T00:12:45.656Z,1028.34
2023-02-13T00:13:44.279Z,1028.34
2023-02-13T00:14:44.475Z,1028.34
2023-02-13T00:15:44.694Z,1028.34
2023-02-13T00:16:45.657Z,1028.34
2023-02-13T00:17:45.675Z,1028.37
2023-02-13T00:18:45.181Z,1028.43
2023-02-13T00:19:45.379Z,1028.40
2023-02-13T00:20:45.549Z,1028.37
2023-02-13T00:21:45.709Z,1028.41
2023-02-13T00:22:45.874Z,1028.39
2023-02-13T00:23:46.027Z,1028.33
2023-02-13T00:24:47.191Z,1028.32
2023-02-13T00:25:46.330Z,1028.29
2023-02-13T00:26:46.474Z,1028.30
2023-02-13T00:27:46.656Z,1028.30
2023-02-13T00:28:47.704Z,1028.30
2023-02-13T00:29:46.963Z,1028.34
2023-02-13T00:30:47.221Z,1028.29
2023-02-13T00:31:47.360Z,1028.26
2023-02-13T00:32:48.156Z,1028.30
2023-02-13T00:33:47.662Z,1028.25
2023-02-13T00:34:48.658Z,1028.29
2023-02-13T00:35:48.054Z,1028.22
2023-02-13T00:36:49.160Z,1028.16
2023-02-13T00:37:48.720Z,1028.23
2023-02-13T00:38:49.205Z,1028.18
2023-02-13T00:39:48.849Z,1028.16
2023-02-13T00:40:49.011Z,1028.19
2023-02-13T00:41:49.202Z,1028.24
2023-02-13T00:42:49.427Z,1028.13
2023-02-13T00:43:49.623Z,1028.16
2023-02-13T00:44:49.790Z,1028.14
2023-02-13T00:45:50.664Z,1028.19
2023-02-13T00:46:51.166Z,1028.18
2023-02-13T00:47:53.167Z,1028.15
2023-02-13T00:48:50.528Z,1028.20
2023-02-13T00:49:51.198Z,1028.14
2023-02-13T00:50:50.988Z,1028.17
2023-02-13T00:51:52.702Z,1028.17
2023-02-13T00:52:51.246Z,1028.19
2023-02-13T00:53:52.168Z,1028.24
2023-02-13T00:54:51.572Z,1028.22
2023-02-13T00:55:51.723Z,1028.21
2023-02-13T00:56:51.904Z,1028.18
2023-02-13T00:57:52.081Z,1028.19
2023-02-13T00:58:52.264Z,1028.15
2023-02-13T00:59:52.466Z,1028.19
2023-02-13T01:00:52.688Z,1028.26
2023-02-13T01:01:52.936Z,1028.19
2023-02-13T01:02:53.148Z,1028.18
2023-02-13T01:03:54.253Z,1028.26
2023-02-13T01:04:53.517Z,1028.22
2023-02-13T01:05:53.669Z,1028.27
2023-02-13T01:06:53.820Z,1028.14
2023-02-13T01:07:54.010Z,1028.22
2023-02-13T01:08:54.670Z,1028.20
2023-02-13T01:09:54.351Z,1028.24
2023-02-13T01:10:54.654Z,1028.20
2023-02-13T01:11:54.753Z,1028.24
2023-02-13T01:12:54.938Z,1028.27
2023-02-13T01:13:55.092Z,1028.19
2023-02-13T01:14:55.721Z,1028.24
2023-02-13T01:15:55.422Z,1028.25
2023-02-13T01:16:55.572Z,1028.22
2023-02-13T01:17:55.756Z,1028.25
2023-02-13T01:18:55.972Z,1028.27
2023-02-13T01:19:56.202Z,1028.22
2023-02-13T01:20:56.707Z,1028.26
2023-02-13T01:21:56.611Z,1028.27
2023-02-13T01:22:56.803Z,1028.31
2023-02-13T01:23:57.018Z,1028.30
2023-02-13T01:24:57.218Z,1028.32
2023-02-13T01:25:58.211Z,1028.27
2023-02-13T01:26:57.662Z,1028.30
2023-02-13T01:27:57.857Z,1028.32
2023-02-13T01:28:58.071Z,1028.27
2023-02-13T01:30:30.640Z,1028.31
2023-02-13T01:31:00.354Z,1028.35
2023-02-13T01:31:58.782Z,1028.28
2023-02-13T01:32:58.715Z,1028.27
2023-02-13T01:33:58.926Z,1028.35
2023-02-13T01:34:59.121Z,1028.35
2023-02-13T01:35:59.306Z,1028.40
2023-02-13T01:36:59.501Z,1028.36
2023-02-13T01:37:59.656Z,1028.38
2023-02-13T01:39:01.717Z,1028.40
2023-02-13T01:39:59.979Z,1028.45
2023-02-13T01:41:00.345Z,1028.40
2023-02-13T01:42:00.405Z,1028.48
2023-02-13T01:43:00.581Z,1028.45
2023-02-13T01:44:00.748Z,1028.47
2023-02-13T01:45:00.924Z,1028.39
2023-02-13T01:46:01.105Z,1028.43
2023-02-13T01:47:01.277Z,1028.44
2023-02-13T01:48:01.465Z,1028.39
2023-02-13T01:49:01.772Z,1028.36
2023-02-13T01:50:03.670Z,1028.42
2023-02-13T01:51:02.034Z,1028.38
2023-02-13T01:52:02.210Z,1028.40
2023-02-13T01:53:02.371Z,1028.39
2023-02-13T01:54:03.265Z,1028.40
2023-02-13T01:55:02.639Z,1028.35
2023-02-13T01:56:04.713Z,1028.40
2023-02-13T01:57:03.758Z,1028.38
2023-02-13T01:58:03.153Z,1028.37
2023-02-13T01:59:03.339Z,1028.41
2023-02-13T02:00:36.963Z,1028.42
2023-02-13T02:01:03.705Z,1028.44
2023-02-13T02:02:03.959Z,1028.39
2023-02-13T02:03:04.754Z,1028.40
2023-02-13T02:04:25.212Z,1028.35
2023-02-13T02:05:06.257Z,1028.38
2023-02-13T02:06:04.654Z,1028.40
2023-02-13T02:07:04.823Z,1028.41
2023-02-13T02:08:04.993Z,1028.45
2023-02-13T02:09:05.158Z,1028.44
2023-02-13T02:10:05.310Z,1028.40
2023-02-13T02:11:05.500Z,1028.40
2023-02-13T02:12:06.251Z,1028.44
2023-02-13T02:13:05.899Z,1028.44
2023-02-13T02:14:06.749Z,1028.51
2023-02-13T02:15:06.288Z,1028.47
2023-02-13T02:16:08.290Z,1028.47
2023-02-13T02:17:07.291Z,1028.52
2023-02-13T02:18:06.970Z,1028.43
2023-02-13T02:19:07.305Z,1028.39
2023-02-13T02:20:07.328Z,1028.42
2023-02-13T02:21:08.748Z,1028.43
2023-02-13T02:22:08.306Z,1028.39
2023-02-13T02:23:07.802Z,1028.43
2023-02-13T02:24:08.754Z,1028.44
2023-02-13T02:25:08.133Z,1028.45
2023-02-13T02:26:08.274Z,1028.44
2023-02-13T02:27:08.409Z,1028.49
2023-02-13T02:28:08.614Z,1028.36
2023-02-13T02:29:08.765Z,1028.41
2023-02-13T02:30:08.916Z,1028.37
2023-02-13T02:31:09.162Z,1028.43
2023-02-13T02:32:09.205Z,1028.33
2023-02-13T02:33:09.353Z,1028.37
2023-02-13T02:34:09.528Z,1028.38
2023-02-13T02:35:10.302Z,1028.37
2023-02-13T02:36:09.947Z,1028.31
2023-02-13T02:37:10.109Z,1028.34
2023-02-13T02:38:10.800Z,1028.37
2023-02-13T02:39:10.498Z,1028.32
2023-02-13T02:40:10.688Z,1028.24
2023-02-13T02:41:10.826Z,1028.25
2023-02-13T02:42:10.953Z,1028.31
2023-02-13T02:43:12.259Z,1028.29
2023-02-13T02:44:11.260Z,1028.31
2023-02-13T02:45:12.251Z,1028.31
2023-02-13T02:46:11.618Z,1028.27
2023-02-13T02:47:11.793Z,1028.23
2023-02-13T02:48:11.928Z,1028.28
2023-02-13T02:49:12.089Z,1028.24
2023-02-13T02:50:12.270Z,1028.26
2023-02-13T02:51:13.303Z,1028.25
2023-02-13T02:52:13.273Z,1028.31
2023-02-13T02:53:13.762Z,1028.25
2023-02-13T02:54:12.892Z,1028.25
2023-02-13T02:55:13.066Z,1028.25
2023-02-13T02:56:13.206Z,1028.25
2023-02-13T02:57:14.262Z,1028.21
2023-02-13T02:58:14.267Z,1028.23
2023-02-13T02:59:13.649Z,1028.21
2023-02-13T03:00:14.760Z,1028.18
2023-02-13T03:01:14.062Z,1028.22
2023-02-13T03:02:14.257Z,1028.24
2023-02-13T03:03:14.417Z,1028.22
2023-02-13T03:04:14.668Z,1028.26
2023-02-13T03:05:17.765Z,1028.21
2023-02-13T03:06:14.980Z,1028.19
2023-02-13T03:07:15.115Z,1028.27
2023-02-13T03:08:15.289Z,1028.17
2023-02-13T03:09:15.454Z,1028.18
2023-02-13T03:10:15.625Z,1028.17
2023-02-13T03:11:15.777Z,1028.20
2023-02-13T03:12:15.932Z,1028.24
2023-02-13T03:13:16.083Z,1028.16
2023-02-13T03:14:16.235Z,1028.15
2023-02-13T03:15:16.443Z,1028.19
2023-02-13T03:16:16.635Z,1028.17
2023-02-13T03:17:18.767Z,1028.23
2023-02-13T03:18:17.002Z,1028.16
2023-02-13T03:19:17.176Z,1028.21
2023-02-13T03:20:17.366Z,1028.24
2023-02-13T03:21:17.548Z,1028.28
2023-02-13T03:22:17.706Z,1028.23
2023-02-13T03:23:17.854Z,1028.25
2023-02-13T03:24:18.026Z,1028.29
2023-02-13T03:25:18.812Z,1028.25
2023-02-13T03:26:18.309Z,1028.24
2023-02-13T03:27:18.439Z,1028.22
2023-02-13T03:28:18.624Z,1028.20
2023-02-13T03:29:18.810Z,1028.16
2023-02-13T03:30:20.274Z,1028.23
2023-02-13T03:31:19.190Z,1028.15
2023-02-13T03:32:19.382Z,1028.25
2023-02-13T03:33:19.541Z,1028.17
2023-02-13T03:34:20.287Z,1028.22
2023-02-13T03:35:19.812Z,1028.25
2023-02-13T03:36:20.806Z,1028.24
2023-02-13T03:37:20.778Z,1028.32
2023-02-13T03:38:20.284Z,1028.24
2023-02-13T03:39:20.511Z,1028.21
2023-02-13T03:40:20.668Z,1028.28
2023-02-13T03:41:20.826Z,1028.27
2023-02-13T03:42:20.991Z,1028.29
2023-02-13T03:43:21.168Z,1028.28
2023-02-13T03:44:22.270Z,1028.35
2023-02-13T03:45:22.273Z,1028.34
2023-02-13T03:46:21.670Z,1028.31
2023-02-13T03:47:22.771Z,1028.28
2023-02-13T03:48:23.770Z,1028.28
2023-02-13T03:49:22.269Z,1028.34
2023-02-13T03:50:22.463Z,1028.35
2023-02-13T03:51:22.604Z,1028.32
2023-02-13T03:52:23.778Z,1028.33
2023-02-13T03:53:22.917Z,1028.32
2023-02-13T03:54:23.069Z,1028.31
2023-02-13T03:55:23.248Z,1028.32
2023-02-13T03:56:24.787Z,1028.37
2023-02-13T03:57:23.522Z,1028.42
2023-02-13T03:58:23.688Z,1028.41
2023-02-13T03:59:23.857Z,1028.37
2023-02-13T04:00:24.051Z,1028.40
2023-02-13T04:01:24.223Z,1028.35
2023-02-13T04:02:24.453Z,1028.41
2023-02-13T04:03:26.780Z,1028.28
2023-02-13T04:04:24.655Z,1028.36
2023-02-13T04:05:25.774Z,1028.38
2023-02-13T04:06:26.274Z,1028.38
2023-02-13T04:07:25.296Z,1028.41
2023-02-13T04:08:25.467Z,1028.43
2023-02-13T04:09:26.274Z,1028.42
2023-02-13T04:10:25.793Z,1028.34
2023-02-13T04:11:27.281Z,1028.35
2023-02-13T04:12:26.193Z,1028.36
2023-02-13T04:13:27.778Z,1028.40
2023-02-13T04:14:26.531Z,1028.42
2023-02-13T04:15:27.281Z,1028.39
2023-02-13T04:16:26.981Z,1028.39
2023-02-13T04:17:28.279Z,1028.42
2023-02-13T04:18:27.307Z,1028.42
2023-02-13T04:19:27.500Z,1028.41
2023-02-13T04:20:27.673Z,1028.36
2023-02-13T04:21:27.839Z,1028.37
2023-02-13T04:22:27.986Z,1028.30
2023-02-13T04:23:28.174Z,1028.35
2023-02-13T04:24:28.340Z,1028.39
2023-02-13T04:25:28.506Z,1028.25
2023-02-13T04:26:28.662Z,1028.35
2023-02-13T04:27:28.833Z,1028.34
2023-02-13T04:28:29.392Z,1028.39
2023-02-13T04:29:29.125Z,1028.42
2023-02-13T04:30:29.871Z,1028.23
2023-02-13T04:31:29.519Z,1028.30
2023-02-13T04:32:29.641Z,1028.35
2023-02-13T04:33:30.784Z,1028.27
2023-02-13T04:34:29.970Z,1028.33
2023-02-13T04:35:30.156Z,1028.28
2023-02-13T04:36:30.322Z,1028.26
2023-02-13T04:37:30.485Z,1028.24
2023-02-13T04:38:31.284Z,1028.27
2023-02-13T04:39:30.863Z,1028.17
2023-02-13T04:40:31.782Z,1028.18
2023-02-13T04:41:31.177Z,1028.20
2023-02-13T04:42:31.347Z,1028.16
2023-02-13T04:43:31.539Z,1028.20
2023-02-13T04:44:31.742Z,1028.20
2023-02-13T04:45:31.914Z,1028.17
2023-02-13T04:46:32.789Z,1028.16
2023-02-13T04:47:33.284Z,1028.14
2023-02-13T04:48:33.291Z,1028.13
2023-02-13T04:49:32.575Z,1028.06
2023-02-13T04:50:34.285Z,1028.10
2023-02-13T04:51:32.929Z,1028.12
2023-02-13T04:52:33.794Z,1028.08
2023-02-13T04:53:33.231Z,1028.15
2023-02-13T04:54:34.285Z,1028.13
2023-02-13T04:55:35.223Z,1028.11
2023-02-13T04:56:33.787Z,1028.16
2023-02-13T04:57:34.782Z,1028.14
2023-02-13T04:58:34.164Z,1028.15
2023-02-13T04:59:35.280Z,1028.13
2023-02-13T05:00:34.558Z,1028.10
2023-02-13T05:01:35.365Z,1028.10
2023-02-13T05:02:34.908Z,1028.08
2023-02-13T05:03:35.648Z,1028.16
2023-02-13T05:04:35.319Z,1028.10
2023-02-13T05:05:36.155Z,1028.10
2023-02-13T05:06:35.652Z,1028.11
2023-02-13T05:07:35.816Z,1028.14
2023-02-13T05:08:35.992Z,1028.17
2023-02-13T05:09:36.150Z,1028.18
2023-02-13T05:10:36.298Z,1028.16
2023-02-13T05:11:36.467Z,1028.12
2023-02-13T05:12:36.619Z,1028.18
2023-02-13T05:13:36.881Z,1028.13
2023-02-13T05:14:36.959Z,1028.15
2023-02-13T05:15:37.168Z,1028.14
2023-02-13T05:16:37.826Z,1028.12
2023-02-13T05:17:37.480Z,1028.19
2023-02-13T05:18:37.660Z,1028.14
2023-02-13T05:19:37.859Z,1028.14
2023-02-13T05:20:38.021Z,1028.12
2023-02-13T05:21:38.183Z,1028.17
2023-02-13T05:22:38.372Z,1028.12
2023-02-13T05:23:38.562Z,1028.13
2023-02-13T05:24:38.712Z,1028.14
2023-02-13T05:25:38.877Z,1028.15
2023-02-13T05:26:39.050Z,1028.15
2023-02-13T05:27:39.204Z,1028.12
2023-02-13T05:28:39.401Z,1028.15
2023-02-13T05:29:40.289Z,1028.20
2023-02-13T05:30:39.821Z,1028.13
2023-02-13T05:31:40.132Z,1028.10
2023-02-13T05:32:40.788Z,1028.13
2023-02-13T05:33:40.307Z,1028.14
2023-02-13T05:34:41.283Z,1028.10
2023-02-13T05:35:40.666Z,1028.10
2023-02-13T05:36:40.825Z,1028.14
2023-02-13T05:37:41.836Z,1028.08
2023-02-13T05:38:41.257Z,1028.14
2023-02-13T05:39:41.481Z,1028.06
2023-02-13T05:40:41.682Z,1028.06
2023-02-13T05:41:41.845Z,1028.08
2023-02-13T05:42:41.990Z,1028.08
2023-02-13T05:43:42.134Z,1028.07
2023-02-13T05:44:42.267Z,1028.10
2023-02-13T05:45:43.297Z,1028.10
2023-02-13T05:46:42.730Z,1028.09
2023-02-13T05:47:42.758Z,1028.09
2023-02-13T05:48:42.950Z,1028.07
2023-02-13T05:49:43.135Z,1028.08
2023-02-13T05:50:43.301Z,1028.11
2023-02-13T05:51:43.481Z,1028.13
2023-02-13T05:52:43.633Z,1028.04
2023-02-13T05:53:43.845Z,1028.09
2023-02-13T05:54:43.914Z,1028.00
2023-02-13T05:55:44.117Z,1028.00
2023-02-13T05:56:45.794Z,1028.03
2023-02-13T05:57:44.438Z,1028.05
2023-02-13T05:58:44.672Z,1028.03
2023-02-13T05:59:44.873Z,1028.02
2023-02-13T06:00:45.080Z,1028.04
2023-02-13T06:01:45.264Z,1028.03
2023-02-13T06:02:45.533Z,1028.03
2023-02-13T06:03:45.617Z,1028.05
2023-02-13T06:04:45.748Z,1028.04
2023-02-13T06:05:45.967Z,1028.06
2023-02-13T06:06:46.197Z,1027.96
2023-02-13T06:07:47.292Z,1028.07
2023-02-13T06:08:47.227Z,1028.05
2023-02-13T06:09:46.749Z,1028.05
2023-02-13T06:10:46.942Z,1028.02
2023-02-13T06:11:47.118Z,1028.05
2023-02-13T06:12:47.314Z,1028.11
2023-02-13T06:13:47.551Z,1028.06
2023-02-13T06:14:47.750Z,1028.07
2023-02-13T06:15:49.354Z,1028.12
2023-02-13T06:16:48.109Z,1028.02
2023-02-13T06:17:48.840Z,1028.04
2023-02-13T06:18:49.660Z,1028.07
2023-02-13T06:19:49.296Z,1028.06
2023-02-13T06:20:48.960Z,1028.15
2023-02-13T06:21:49.805Z,1028.17
2023-02-13T06:22:50.806Z,1028.15
2023-02-13T06:23:49.463Z,1028.17
2023-02-13T06:24:49.667Z,1028.20
2023-02-13T06:25:50.840Z,1028.17
2023-02-13T06:26:50.008Z,1028.24
2023-02-13T06:27:50.189Z,1028.24
2023-02-13T06:28:50.382Z,1028.18
2023-02-13T06:29:51.300Z,1028.20
2023-02-13T06:30:51.491Z,1028.24
2023-02-13T06:31:51.843Z,1028.23
2023-02-13T06:32:51.009Z,1028.29
2023-02-13T06:33:51.210Z,1028.26
2023-02-13T06:34:51.421Z,1028.27
2023-02-13T06:35:51.639Z,1028.27
2023-02-13T06:36:51.750Z,1028.29
2023-02-13T06:37:51.944Z,1028.32
2023-02-13T06:38:52.800Z,1028.31
2023-02-13T06:39:52.280Z,1028.22
2023-02-13T06:40:52.455Z,1028.24
2023-02-13T06:41:52.658Z,1028.24
2023-02-13T06:42:53.674Z,1028.31
2023-02-13T06:43:52.967Z,1028.34
2023-02-13T06:44:53.819Z,1028.28
2023-02-13T06:45:55.315Z,1028.31
2023-02-13T06:46:53.688Z,1028.33
2023-02-13T06:47:53.748Z,1028.33
2023-02-13T06:48:54.807Z,1028.38
2023-02-13T06:49:54.115Z,1028.28
2023-02-13T06:50:55.192Z,1028.36
2023-02-13T06:51:55.310Z,1028.30
2023-02-13T06:52:54.603Z,1028.30
2023-02-13T06:53:54.830Z,1028.42
2023-02-13T06:54:56.304Z,1028.38
2023-02-13T06:55:55.171Z,1028.37
2023-02-13T06:56:56.309Z,1028.38
2023-02-13T06:57:56.350Z,1028.41
2023-02-13T06:58:55.718Z,1028.35
2023-02-13T06:59:55.906Z,1028.43
2023-02-13T07:00:56.507Z,1028.41
2023-02-13T07:01:56.228Z,1028.44
2023-02-13T07:02:56.516Z,1028.47
2023-02-13T07:03:57.363Z,1028.51
2023-02-13T07:04:56.772Z,1028.55
2023-02-13T07:05:56.935Z,1028.55
2023-02-13T07:06:57.122Z,1028.58
2023-02-13T07:07:57.297Z,1028.50
2023-02-13T07:08:57.469Z,1028.56
2023-02-13T07:09:57.616Z,1028.58
2023-02-13T07:10:58.199Z,1028.54
2023-02-13T07:11:58.009Z,1028.63
2023-02-13T07:13:05.660Z,1028.51
2023-02-13T07:14:00.385Z,1028.59
2023-02-13T07:14:58.595Z,1028.61
2023-02-13T07:15:59.332Z,1028.55
2023-02-13T07:16:58.974Z,1028.59
2023-02-13T07:17:59.156Z,1028.61
2023-02-13T07:18:59.302Z,1028.59
2023-02-13T07:19:59.467Z,1028.56
2023-02-13T07:21:00.320Z,1028.60
2023-02-13T07:22:00.817Z,1028.55
2023-02-13T07:22:59.954Z,1028.62
2023-02-13T07:24:00.818Z,1028.63
2023-02-13T07:25:00.348Z,1028.62
2023-02-13T07:26:01.320Z,1028.64
2023-02-13T07:27:00.715Z,1028.69
2023-02-13T07:28:01.869Z,1028.62
2023-02-13T07:29:10.793Z,1028.62
2023-02-13T07:30:03.192Z,1028.60
2023-02-13T07:31:01.382Z,1028.62
2023-02-13T07:32:33.882Z,1028.58
2023-02-13T07:33:03.358Z,1028.67
2023-02-13T07:34:01.871Z,1028.53
2023-02-13T07:35:02.768Z,1028.53
2023-02-13T07:36:03.272Z,1028.50
2023-02-13T07:37:02.431Z,1028.56
2023-02-13T07:38:02.678Z,1028.51
2023-02-13T07:39:02.871Z,1028.56
2023-02-13T07:40:05.579Z,1028.48
2023-02-13T07:41:03.237Z,1028.54
2023-02-13T07:42:04.358Z,1028.48
2023-02-13T07:43:03.625Z,1028.12
2023-02-13T07:44:03.814Z,1027.40
2023-02-13T07:45:04.722Z,1026.50
2023-02-13T07:46:04.129Z,1025.73
2023-02-13T07:47:04.379Z,1025.07
2023-02-13T07:48:04.456Z,1024.59
2023-02-13T07:49:04.637Z,1024.13
2023-02-13T07:50:04.822Z,1023.78
2023-02-13T07:51:06.040Z,1023.42
2023-02-13T07:52:05.902Z,1023.23
2023-02-13T07:53:05.427Z,1022.97
2023-02-13T07:54:05.600Z,1022.79
2023-02-13T07:55:05.823Z,1022.60
2023-02-13T07:56:06.039Z,1022.40
2023-02-13T07:57:06.215Z,1022.13
2023-02-13T07:58:06.392Z,1021.91
2023-02-13T07:59:07.857Z,1021.68
2023-02-13T08:00:07.792Z,1021.58
2023-02-13T08:01:06.928Z,1021.35
2023-02-13T08:02:07.176Z,1021.20
2023-02-13T08:03:07.256Z,1021.01
2023-02-13T08:04:07.466Z,1020.99
2023-02-13T08:05:07.678Z,1020.88
2023-02-13T08:06:07.838Z,1020.93
2023-02-13T08:07:07.990Z,1021.04
2023-02-13T08:08:08.168Z,1021.29
2023-02-13T08:09:08.865Z,1021.69
2023-02-13T08:10:09.383Z,1022.17
2023-02-13T08:11:09.375Z,1022.49
2023-02-13T08:12:08.919Z,1022.89
2023-02-13T08:13:09.075Z,1023.14
2023-02-13T08:14:10.864Z,1023.36
2023-02-13T08:15:10.366Z,1023.58
2023-02-13T08:16:10.380Z,1023.77
2023-02-13T08:17:09.833Z,1023.97
2023-02-13T08:18:09.994Z,1024.10
2023-02-13T08:19:12.258Z,1024.32
2023-02-13T08:20:11.360Z,1024.37
2023-02-13T08:21:11.449Z,1024.55
2023-02-13T08:22:10.824Z,1024.74
2023-02-13T08:23:11.047Z,1024.81
2023-02-13T08:24:11.251Z,1024.66
2023-02-13T08:25:12.736Z,1024.18
2023-02-13T08:26:12.373Z,1023.77
2023-02-13T08:27:11.771Z,1023.30
2023-02-13T08:28:12.933Z,1022.76
2023-02-13T08:29:12.119Z,1022.46
2023-02-13T08:30:12.255Z,1022.14
2023-02-13T08:31:12.441Z,1021.76
2023-02-13T08:32:13.891Z,1021.49
2023-02-13T08:33:12.755Z,1021.17
2023-02-13T08:34:13.875Z,1020.95
2023-02-13T08:35:13.120Z,1020.76
2023-02-13T08:36:13.268Z,1020.56
2023-02-13T08:37:13.453Z,1020.42
2023-02-13T08:38:13.591Z,1020.30
2023-02-13T08:39:13.771Z,1020.18
2023-02-13T08:40:15.870Z,1020.03
2023-02-13T08:41:14.119Z,1019.91
2023-02-13T08:42:16.115Z,1019.86
2023-02-13T08:43:14.485Z,1019.70
2023-02-13T08:44:14.645Z,1019.71
2023-02-13T08:45:14.837Z,1019.57
2023-02-13T08:46:15.114Z,1019.48
2023-02-13T08:47:15.176Z,1019.49
2023-02-13T08:48:15.362Z,1019.43
2023-02-13T08:49:15.506Z,1019.31
2023-02-13T08:50:15.692Z,1019.29
2023-02-13T08:51:16.420Z,1019.29
2023-02-13T08:52:16.048Z,1019.25
2023-02-13T08:53:16.872Z,1019.37
2023-02-13T08:54:16.920Z,1019.29
2023-02-13T08:55:16.584Z,1019.26
2023-02-13T08:56:17.878Z,1019.22
2023-02-13T08:57:16.907Z,1019.22
2023-02-13T08:58:17.073Z,1019.20
2023-02-13T08:59:17.232Z,1019.17
2023-02-13T09:00:17.379Z,1019.03
2023-02-13T09:01:17.639Z,1019.04
2023-02-13T09:02:17.726Z,1019.05
2023-02-13T09:03:18.882Z,1019.02
2023-02-13T09:04:18.041Z,1018.97
2023-02-13T09:05:18.743Z,1018.91
2023-02-13T09:06:18.405Z,1018.90
2023-02-13T09:07:18.600Z,1018.88
2023-02-13T09:08:19.153Z,1018.84
2023-02-13T09:09:18.940Z,1018.82
2023-02-13T09:10:19.082Z,1018.83
2023-02-13T09:11:19.233Z,1018.84
2023-02-13T09:12:19.404Z,1018.82
2023-02-13T09:13:19.613Z,1018.79
2023-02-13T09:14:19.791Z,1018.73
2023-02-13T09:15:20.942Z,1018.76
2023-02-13T09:16:20.254Z,1018.71
2023-02-13T09:17:20.344Z,1018.75
2023-02-13T09:18:20.564Z,1018.86
2023-02-13T09:19:20.661Z,1018.80
2023-02-13T09:20:21.393Z,1018.84
2023-02-13T09:21:21.958Z,1018.89
2023-02-13T09:22:21.224Z,1018.96
2023-02-13T09:23:21.426Z,1019.07
2023-02-13T09:24:21.606Z,1019.07
2023-02-13T09:25:21.862Z,1019.11
2023-02-13T09:26:23.257Z,1019.07
2023-02-13T09:27:23.172Z,1019.06
2023-02-13T09:28:22.435Z,1019.10
2023-02-13T09:29:23.403Z,1019.10
2023-02-13T09:30:24.630Z,1019.11
2023-02-13T09:31:23.059Z,1019.13
2023-02-13T09:32:23.205Z,1019.13
2023-02-13T09:33:25.901Z,1019.11
2023-02-13T09:34:24.401Z,1019.16
2023-02-13T09:35:24.441Z,1019.11
2023-02-13T09:36:23.854Z,1019.17
2023-02-13T09:37:24.929Z,1019.41
2023-02-13T09:38:25.405Z,1019.39
2023-02-13T09:39:26.426Z,1019.41
2023-02-13T09:40:24.575Z,1019.44
2023-02-13T09:41:24.746Z,1019.48
2023-02-13T09:42:24.956Z,1019.58
2023-02-13T09:43:25.048Z,1019.71
2023-02-13T09:44:25.279Z,1019.76
2023-02-13T09:45:26.445Z,1019.71
2023-02-13T09:46:25.664Z,1019.75
2023-02-13T09:47:25.764Z,1019.88
2023-02-13T09:48:25.963Z,1019.92
2023-02-13T09:49:26.164Z,1020.04
2023-02-13T09:50:26.388Z,1020.03
2023-02-13T09:51:28.432Z,1020.08
2023-02-13T09:52:26.691Z,1020.03
2023-02-13T09:53:28.411Z,1020.08
2023-02-13T09:54:27.110Z,1020.06
2023-02-13T09:55:27.913Z,1020.17
2023-02-13T09:56:28.412Z,1020.05
2023-02-13T09:57:27.585Z,1020.17
2023-02-13T09:58:27.771Z,1020.11
2023-02-13T09:59:28.774Z,1020.18
2023-02-13T10:00:28.204Z,1020.10
2023-02-13T10:01:30.002Z,1020.12
2023-02-13T10:02:28.570Z,1020.07
2023-02-13T10:03:28.721Z,1020.01
2023-02-13T10:04:29.416Z,1020.03
2023-02-13T10:05:30.913Z,1020.01
2023-02-13T10:06:29.913Z,1019.99
2023-02-13T10:07:29.473Z,1020.00
2023-02-13T10:08:30.419Z,1020.03
2023-02-13T10:09:30.436Z,1019.92
2023-02-13T10:10:30.424Z,1019.91
2023-02-13T10:11:30.097Z,1019.90
2023-02-13T10:12:30.922Z,1019.92
2023-02-13T10:13:30.466Z,1019.92
2023-02-13T10:14:32.620Z,1019.85
2023-02-13T10:15:31.865Z,1019.91
2023-02-13T10:16:31.042Z,1019.88
2023-02-13T10:17:31.241Z,1019.91
2023-02-13T10:18:31.471Z,1019.91
2023-02-13T10:19:33.422Z,1019.91
2023-02-13T10:20:32.781Z,1019.91
2023-02-13T10:21:32.048Z,1019.89
2023-02-13T10:22:32.781Z,1019.86
2023-02-13T10:23:32.458Z,1019.91
2023-02-13T10:24:33.421Z,1019.88
2023-02-13T10:25:34.429Z,1019.89
2023-02-13T10:26:33.054Z,1019.85
2023-02-13T10:27:33.243Z,1019.89
2023-02-13T10:28:34.362Z,1019.89
2023-02-13T10:29:33.549Z,1019.91
2023-02-13T10:30:33.975Z,1019.92
2023-02-13T10:31:35.497Z,1019.96
2023-02-13T10:32:35.042Z,1019.96
2023-02-13T10:33:34.187Z,1019.98
2023-02-13T10:34:34.977Z,1019.98
2023-02-13T10:35:34.529Z,1020.03
2023-02-13T10:36:34.691Z,1020.03
2023-02-13T10:37:34.906Z,1020.04
2023-02-13T10:38:35.120Z,1020.10
2023-02-13T10:39:35.301Z,1020.07
2023-02-13T10:40:36.469Z,1020.10
2023-02-13T10:41:35.643Z,1020.04
2023-02-13T10:42:36.628Z,1020.10
2023-02-13T10:43:37.062Z,1020.08
2023-02-13T10:44:36.219Z,1020.18
2023-02-13T10:45:36.405Z,1020.09
2023-02-13T10:46:36.631Z,1020.11
2023-02-13T10:47:36.888Z,1020.09
2023-02-13T10:48:36.977Z,1020.19
2023-02-13T10:49:37.934Z,1020.22
2023-02-13T10:50:37.237Z,1020.13
2023-02-13T10:51:37.979Z,1020.16
2023-02-13T10:52:37.984Z,1020.16
2023-02-13T10:53:37.798Z,1020.20
2023-02-13T10:54:37.988Z,1020.22
2023-02-13T10:55:38.979Z,1020.22
2023-02-13T10:56:38.393Z,1020.21
2023-02-13T10:57:38.624Z,1020.22
2023-02-13T10:58:39.500Z,1020.20
2023-02-13T10:59:39.068Z,1020.21
2023-02-13T11:00:39.252Z,1020.19
2023-02-13T11:01:39.477Z,1020.21
2023-02-13T11:02:40.685Z,1020.19
2023-02-13T11:03:39.859Z,1020.20
2023-02-13T11:04:40.070Z,1020.14
2023-02-13T11:05:40.266Z,1020.20
2023-02-13T11:06:41.300Z,1020.21
2023-02-13T11:07:41.438Z,1020.28
2023-02-13T11:08:40.828Z,1020.25
2023-02-13T11:09:41.044Z,1020.17
2023-02-13T11:10:41.217Z,1020.28
2023-02-13T11:11:42.030Z,1020.32
2023-02-13T11:12:42.471Z,1020.30
2023-02-13T11:13:41.730Z,1020.32
2023-02-13T11:14:41.924Z,1020.32
2023-02-13T11:15:42.102Z,1020.38
2023-02-13T11:16:42.233Z,1020.41
2023-02-13T11:17:42.409Z,1020.54
2023-02-13T11:18:42.555Z,1020.69
2023-02-13T11:19:43.439Z,1020.76
2023-02-13T11:20:42.840Z,1020.97
2023-02-13T11:21:43.489Z,1021.11
2023-02-13T11:22:43.147Z,1021.28
2023-02-13T11:23:43.290Z,1021.38
2023-02-13T11:24:43.978Z,1021.49
2023-02-13T11:25:43.624Z,1021.77
2023-02-13T11:26:43.821Z,1021.85
2023-02-13T11:27:43.984Z,1022.00
2023-02-13T11:28:45.017Z,1022.06
2023-02-13T11:29:44.293Z,1022.14
2023-02-13T11:30:44.472Z,1022.23
2023-02-13T11:31:44.738Z,1022.40
2023-02-13T11:33:18.266Z,1022.50
2023-02-13T11:33:45.024Z,1022.49
2023-02-13T11:34:45.188Z,1022.59
2023-02-13T11:35:46.023Z,1022.70
2023-02-13T11:36:45.576Z,1022.72
2023-02-13T11:37:46.523Z,1022.80
2023-02-13T11:38:45.935Z,1022.85
2023-02-13T11:39:46.053Z,1022.91
2023-02-13T11:40:47.873Z,1023.02
2023-02-13T11:41:46.374Z,1022.99
2023-02-13T11:42:48.482Z,1023.06
2023-02-13T11:43:46.726Z,1023.01
2023-02-13T11:44:46.888Z,1023.15
2023-02-13T11:45:48.981Z,1023.23
2023-02-13T11:46:48.585Z,1023.23
2023-02-13T11:47:47.424Z,1023.28
2023-02-13T11:48:47.621Z,1023.29
2023-02-13T11:49:48.485Z,1023.37
2023-02-13T11:50:47.972Z,1023.39
2023-02-13T11:51:49.104Z,1023.49
2023-02-13T11:52:48.270Z,1023.49
2023-02-13T11:53:48.453Z,1023.58
2023-02-13T11:54:48.637Z,1023.54
2023-02-13T11:55:48.820Z,1023.58
2023-02-13T11:57:03.948Z,1023.65
2023-02-13T11:57:51.229Z,1023.72
2023-02-13T11:58:50.028Z,1023.76
2023-02-13T11:59:51.489Z,1023.74
2023-02-13T12:00:49.741Z,1023.72
2023-02-13T12:01:50.498Z,1023.82
2023-02-13T12:02:51.152Z,1023.84
2023-02-13T12:03:50.585Z,1023.84
2023-02-13T12:04:50.489Z,1023.91
2023-02-13T12:05:50.655Z,1023.89
2023-02-13T12:06:50.807Z,1023.84
2023-02-13T12:07:51.533Z,1023.85